sensor_id;sensor_type;location;lat;lon;timestamp;temperature;humidity
11264;DHT22;5689;48.798;9.070;2023-05-10T00:02:15;13.30;99.90
11264;DHT22;5689;48.798;9.070;2023-05-10T00:04:43;13.30;99.90
11264;DHT22;5689;48.798;9.070;2023-05-10T00:07:11;13.20;99.90
11264;DHT22;5689;48.798;9.070;2023-05-10T00:09:39;13.10;99.90
11264;DHT22;5689;48.798;9.070;2023-05-10T00:12:08;13.00;99.90
11264;DHT22;5689;48.798;9.070;2023-05-10T00:14:36;13.10;99.90
11264;DHT22;5689;48.798;9.070;2023-05-10T00:17:04;13.00;99.90
11264;DHT22;5689;48.798;9.070;2023-05-10T00:19:32;13.00;99.90
11264;DHT22;5689;48.798;9.070;2023-05-10T00:22:00;13.00;99.90
11264;DHT22;5689;48.798;9.070;2023-05-10T00:24:28;12.90;99.90
11264;DHT22;5689;48.798;9.070;2023-05-10T00:26:56;12.90;99.90
11264;DHT22;5689;48.798;9.070;2023-05-10T00:29:25;12.90;99.90
11264;DHT22;5689;48.798;9.070;2023-05-10T00:31:54;12.80;99.90
11264;DHT22;5689;48.798;9.070;2023-05-10T00:34:23;12.80;99.90
11264;DHT22;5689;48.798;9.070;2023-05-10T00:36:51;12.80;99.90
11264;DHT22;5689;48.798;9.070;2023-05-10T00:39:19;12.80;99.90
11264;DHT22;5689;48.798;9.070;2023-05-10T00:41:47;12.80;99.90
11264;DHT22;5689;48.798;9.070;2023-05-10T00:44:16;12.80;99.90
11264;DHT22;5689;48.798;9.070;2023-05-10T00:46:46;12.70;99.90
11264;DHT22;5689;48.798;9.070;2023-05-10T00:49:15;12.70;99.90
11264;DHT22;5689;48.798;9.070;2023-05-10T00:51:43;12.70;99.90
11264;DHT22;5689;48.798;9.070;2023-05-10T00:54:12;12.70;99.90
11264;DHT22;5689;48.798;9.070;2023-05-10T00:56:41;12.70;99.90
11264;DHT22;5689;48.798;9.070;2023-05-10T00:59:10;12.60;99.90
11264;DHT22;5689;48.798;9.070;2023-05-10T01:01:38;12.70;99.90
11264;DHT22;5689;48.798;9.070;2023-05-10T01:04:07;12.70;99.90
11264;DHT22;5689;48.798;9.070;2023-05-10T01:06:36;12.60;99.90
11264;DHT22;5689;48.798;9.070;2023-05-10T01:09:04;12.60;99.90
11264;DHT22;5689;48.798;9.070;2023-05-10T01:11:33;12.60;99.90
11264;DHT22;5689;48.798;9.070;2023-05-10T01:14:02;12.60;99.90
11264;DHT22;5689;48.798;9.070;2023-05-10T01:16:38;12.60;99.90
11264;DHT22;5689;48.798;9.070;2023-05-10T01:19:10;12.50;99.90
11264;DHT22;5689;48.798;9.070;2023-05-10T01:21:45;12.60;99.90
11264;DHT22;5689;48.798;9.070;2023-05-10T01:27:35;12.50;99.90
11264;DHT22;5689;48.798;9.070;2023-05-10T01:33:17;12.50;99.90
11264;DHT22;5689;48.798;9.070;2023-05-10T01:35:54;12.50;99.90
11264;DHT22;5689;48.798;9.070;2023-05-10T01:38:28;12.50;99.90
11264;DHT22;5689;48.798;9.070;2023-05-10T01:41:05;12.50;99.90
11264;DHT22;5689;48.798;9.070;2023-05-10T01:43:44;12.50;99.90
11264;DHT22;5689;48.798;9.070;2023-05-10T01:46:17;12.50;99.90
11264;DHT22;5689;48.798;9.070;2023-05-10T01:48:52;12.50;99.90
11264;DHT22;5689;48.798;9.070;2023-05-10T01:51:24;12.50;99.90
11264;DHT22;5689;48.798;9.070;2023-05-10T01:53:58;12.60;99.90
11264;DHT22;5689;48.798;9.070;2023-05-10T01:56:29;12.70;99.90
11264;DHT22;5689;48.798;9.070;2023-05-10T01:59:00;12.60;99.90
11264;DHT22;5689;48.798;9.070;2023-05-10T02:01:28;12.60;99.90
11264;DHT22;5689;48.798;9.070;2023-05-10T02:03:59;12.60;99.90
11264;DHT22;5689;48.798;9.070;2023-05-10T02:06:28;12.50;99.90
11264;DHT22;5689;48.798;9.070;2023-05-10T02:08:57;12.60;99.90
11264;DHT22;5689;48.798;9.070;2023-05-10T02:11:27;12.60;99.90
11264;DHT22;5689;48.798;9.070;2023-05-10T02:13:58;12.60;99.90
11264;DHT22;5689;48.798;9.070;2023-05-10T02:16:28;12.60;99.90
11264;DHT22;5689;48.798;9.070;2023-05-10T02:18:59;12.60;99.90
11264;DHT22;5689;48.798;9.070;2023-05-10T02:21:30;12.60;99.90
11264;DHT22;5689;48.798;9.070;2023-05-10T02:24:02;12.50;99.90
11264;DHT22;5689;48.798;9.070;2023-05-10T02:26:31;12.60;99.90
11264;DHT22;5689;48.798;9.070;2023-05-10T02:29:01;12.60;99.90
11264;DHT22;5689;48.798;9.070;2023-05-10T02:31:31;12.50;99.90
11264;DHT22;5689;48.798;9.070;2023-05-10T02:34:01;12.50;99.90
11264;DHT22;5689;48.798;9.070;2023-05-10T02:36:30;12.60;99.90
11264;DHT22;5689;48.798;9.070;2023-05-10T02:39:00;12.50;99.90
11264;DHT22;5689;48.798;9.070;2023-05-10T02:41:31;12.70;99.90
11264;DHT22;5689;48.798;9.070;2023-05-10T02:44:01;12.80;99.90
11264;DHT22;5689;48.798;9.070;2023-05-10T02:46:30;12.80;99.90
11264;DHT22;5689;48.798;9.070;2023-05-10T02:48:58;12.70;99.90
11264;DHT22;5689;48.798;9.070;2023-05-10T02:51:31;12.60;99.90
11264;DHT22;5689;48.798;9.070;2023-05-10T02:54:06;12.60;99.90
11264;DHT22;5689;48.798;9.070;2023-05-10T02:56:42;12.60;99.90
11264;DHT22;5689;48.798;9.070;2023-05-10T02:59:11;12.60;99.90
11264;DHT22;5689;48.798;9.070;2023-05-10T03:01:38;12.60;99.90
11264;DHT22;5689;48.798;9.070;2023-05-10T03:04:06;12.60;99.90
11264;DHT22;5689;48.798;9.070;2023-05-10T03:06:36;12.60;99.90
11264;DHT22;5689;48.798;9.070;2023-05-10T03:09:04;12.70;99.90
11264;DHT22;5689;48.798;9.070;2023-05-10T03:11:47;12.60;99.90
11264;DHT22;5689;48.798;9.070;2023-05-10T03:17:15;12.60;99.90
11264;DHT22;5689;48.798;9.070;2023-05-10T03:19:49;12.60;99.90
11264;DHT22;5689;48.798;9.070;2023-05-10T03:22:25;12.60;99.90
11264;DHT22;5689;48.798;9.070;2023-05-10T03:24:55;12.50;99.90
11264;DHT22;5689;48.798;9.070;2023-05-10T03:27:27;12.50;99.90
11264;DHT22;5689;48.798;9.070;2023-05-10T03:29:57;12.60;99.90
11264;DHT22;5689;48.798;9.070;2023-05-10T03:32:26;12.70;99.90
11264;DHT22;5689;48.798;9.070;2023-05-10T03:34:54;12.70;99.90
11264;DHT22;5689;48.798;9.070;2023-05-10T03:37:25;12.70;99.90
11264;DHT22;5689;48.798;9.070;2023-05-10T03:39:53;12.80;99.90
11264;DHT22;5689;48.798;9.070;2023-05-10T03:42:21;12.80;99.90
11264;DHT22;5689;48.798;9.070;2023-05-10T03:44:49;12.80;99.90
11264;DHT22;5689;48.798;9.070;2023-05-10T03:47:17;12.80;99.90
11264;DHT22;5689;48.798;9.070;2023-05-10T03:49:45;12.90;99.90
11264;DHT22;5689;48.798;9.070;2023-05-10T03:52:13;12.90;99.90
11264;DHT22;5689;48.798;9.070;2023-05-10T03:54:42;12.80;99.90
11264;DHT22;5689;48.798;9.070;2023-05-10T03:57:10;12.80;99.90
11264;DHT22;5689;48.798;9.070;2023-05-10T03:59:38;12.70;99.90
11264;DHT22;5689;48.798;9.070;2023-05-10T04:02:06;12.60;99.90
11264;DHT22;5689;48.798;9.070;2023-05-10T04:04:35;12.70;99.90
11264;DHT22;5689;48.798;9.070;2023-05-10T04:07:04;12.70;99.90
11264;DHT22;5689;48.798;9.070;2023-05-10T04:09:32;12.70;99.90
11264;DHT22;5689;48.798;9.070;2023-05-10T04:12:01;12.50;99.90
11264;DHT22;5689;48.798;9.070;2023-05-10T04:14:29;12.60;99.90
11264;DHT22;5689;48.798;9.070;2023-05-10T04:16:57;12.60;99.90
11264;DHT22;5689;48.798;9.070;2023-05-10T04:19:29;12.60;99.90
11264;DHT22;5689;48.798;9.070;2023-05-10T04:21:57;12.70;99.90
11264;DHT22;5689;48.798;9.070;2023-05-10T04:24:25;12.70;99.90
11264;DHT22;5689;48.798;9.070;2023-05-10T04:26:54;12.60;99.90
11264;DHT22;5689;48.798;9.070;2023-05-10T04:29:24;12.80;99.90
11264;DHT22;5689;48.798;9.070;2023-05-10T04:31:53;12.80;99.90
11264;DHT22;5689;48.798;9.070;2023-05-10T04:34:21;12.90;99.90
11264;DHT22;5689;48.798;9.070;2023-05-10T04:36:49;12.90;99.90
11264;DHT22;5689;48.798;9.070;2023-05-10T04:39:17;12.90;99.90
11264;DHT22;5689;48.798;9.070;2023-05-10T04:41:45;13.00;99.90
11264;DHT22;5689;48.798;9.070;2023-05-10T04:44:13;13.00;99.90
11264;DHT22;5689;48.798;9.070;2023-05-10T04:46:42;13.00;99.90
11264;DHT22;5689;48.798;9.070;2023-05-10T04:49:10;13.00;99.90
11264;DHT22;5689;48.798;9.070;2023-05-10T04:51:38;13.10;99.90
11264;DHT22;5689;48.798;9.070;2023-05-10T04:54:06;13.10;99.90
11264;DHT22;5689;48.798;9.070;2023-05-10T04:56:34;13.10;99.90
11264;DHT22;5689;48.798;9.070;2023-05-10T04:59:02;13.10;99.90
11264;DHT22;5689;48.798;9.070;2023-05-10T05:01:30;13.10;99.90
11264;DHT22;5689;48.798;9.070;2023-05-10T05:04:00;13.20;99.90
11264;DHT22;5689;48.798;9.070;2023-05-10T05:06:28;13.20;99.90
11264;DHT22;5689;48.798;9.070;2023-05-10T05:08:56;13.20;99.90
11264;DHT22;5689;48.798;9.070;2023-05-10T05:11:24;13.30;99.90
11264;DHT22;5689;48.798;9.070;2023-05-10T05:13:52;13.20;99.90
11264;DHT22;5689;48.798;9.070;2023-05-10T05:16:20;13.30;99.90
11264;DHT22;5689;48.798;9.070;2023-05-10T05:18:48;13.40;99.90
11264;DHT22;5689;48.798;9.070;2023-05-10T05:21:18;13.50;99.90
11264;DHT22;5689;48.798;9.070;2023-05-10T05:23:47;13.50;99.90
11264;DHT22;5689;48.798;9.070;2023-05-10T05:26:15;13.50;99.90
11264;DHT22;5689;48.798;9.070;2023-05-10T05:28:43;13.60;99.90
11264;DHT22;5689;48.798;9.070;2023-05-10T05:31:11;13.80;99.90
11264;DHT22;5689;48.798;9.070;2023-05-10T05:33:39;13.80;99.90
11264;DHT22;5689;48.798;9.070;2023-05-10T05:36:07;13.80;99.90
11264;DHT22;5689;48.798;9.070;2023-05-10T05:38:36;13.80;99.90
11264;DHT22;5689;48.798;9.070;2023-05-10T05:41:04;13.80;99.90
11264;DHT22;5689;48.798;9.070;2023-05-10T05:43:32;13.90;99.90
11264;DHT22;5689;48.798;9.070;2023-05-10T05:46:01;13.90;99.90
11264;DHT22;5689;48.798;9.070;2023-05-10T05:48:30;13.90;99.90
11264;DHT22;5689;48.798;9.070;2023-05-10T05:50:58;14.00;99.90
11264;DHT22;5689;48.798;9.070;2023-05-10T05:53:26;13.90;99.90
11264;DHT22;5689;48.798;9.070;2023-05-10T05:55:56;13.90;99.90
11264;DHT22;5689;48.798;9.070;2023-05-10T05:58:25;14.00;99.90
11264;DHT22;5689;48.798;9.070;2023-05-10T06:00:53;14.10;99.90
11264;DHT22;5689;48.798;9.070;2023-05-10T06:03:21;14.10;99.90
11264;DHT22;5689;48.798;9.070;2023-05-10T06:05:49;14.20;99.90
11264;DHT22;5689;48.798;9.070;2023-05-10T06:08:17;14.30;99.90
11264;DHT22;5689;48.798;9.070;2023-05-10T06:10:45;14.30;99.90
11264;DHT22;5689;48.798;9.070;2023-05-10T06:13:14;14.30;99.90
11264;DHT22;5689;48.798;9.070;2023-05-10T06:15:42;14.20;99.90
11264;DHT22;5689;48.798;9.070;2023-05-10T06:18:11;14.00;99.90
11264;DHT22;5689;48.798;9.070;2023-05-10T06:20:41;14.00;99.90
11264;DHT22;5689;48.798;9.070;2023-05-10T06:23:09;14.00;99.90
11264;DHT22;5689;48.798;9.070;2023-05-10T06:25:37;13.90;99.90
11264;DHT22;5689;48.798;9.070;2023-05-10T06:28:05;13.90;99.90
11264;DHT22;5689;48.798;9.070;2023-05-10T06:30:35;13.70;99.90
11264;DHT22;5689;48.798;9.070;2023-05-10T06:33:03;13.70;99.90
11264;DHT22;5689;48.798;9.070;2023-05-10T06:35:31;13.70;99.90
11264;DHT22;5689;48.798;9.070;2023-05-10T06:38:00;13.70;99.90
11264;DHT22;5689;48.798;9.070;2023-05-10T06:40:28;13.90;99.90
11264;DHT22;5689;48.798;9.070;2023-05-10T06:42:56;13.90;99.90
11264;DHT22;5689;48.798;9.070;2023-05-10T06:45:23;13.90;99.90
11264;DHT22;5689;48.798;9.070;2023-05-10T06:47:53;13.90;99.90
11264;DHT22;5689;48.798;9.070;2023-05-10T06:50:21;13.90;99.90
11264;DHT22;5689;48.798;9.070;2023-05-10T06:52:49;13.80;99.90
11264;DHT22;5689;48.798;9.070;2023-05-10T06:55:18;13.80;99.90
11264;DHT22;5689;48.798;9.070;2023-05-10T06:57:46;13.70;99.90
11264;DHT22;5689;48.798;9.070;2023-05-10T07:00:16;14.00;99.90
11264;DHT22;5689;48.798;9.070;2023-05-10T07:02:44;14.30;99.90
11264;DHT22;5689;48.798;9.070;2023-05-10T07:05:13;14.60;99.90
11264;DHT22;5689;48.798;9.070;2023-05-10T07:07:41;14.80;99.90
11264;DHT22;5689;48.798;9.070;2023-05-10T07:10:10;15.00;99.90
11264;DHT22;5689;48.798;9.070;2023-05-10T07:12:38;15.30;99.90
11264;DHT22;5689;48.798;9.070;2023-05-10T07:15:09;15.30;99.90
11264;DHT22;5689;48.798;9.070;2023-05-10T07:17:40;15.20;99.90
11264;DHT22;5689;48.798;9.070;2023-05-10T07:20:09;15.30;99.90
11264;DHT22;5689;48.798;9.070;2023-05-10T07:22:38;15.40;99.90
11264;DHT22;5689;48.798;9.070;2023-05-10T07:25:07;15.60;99.90
11264;DHT22;5689;48.798;9.070;2023-05-10T07:27:35;15.70;99.90
11264;DHT22;5689;48.798;9.070;2023-05-10T07:30:04;15.50;99.90
11264;DHT22;5689;48.798;9.070;2023-05-10T07:32:32;15.50;99.90
11264;DHT22;5689;48.798;9.070;2023-05-10T07:35:03;15.90;99.90
11264;DHT22;5689;48.798;9.070;2023-05-10T07:37:31;16.10;99.90
11264;DHT22;5689;48.798;9.070;2023-05-10T07:40:00;15.90;99.90
11264;DHT22;5689;48.798;9.070;2023-05-10T07:42:28;15.90;99.90
11264;DHT22;5689;48.798;9.070;2023-05-10T07:44:56;15.80;99.90
11264;DHT22;5689;48.798;9.070;2023-05-10T07:47:24;15.80;99.90
11264;DHT22;5689;48.798;9.070;2023-05-10T07:49:52;15.70;99.90
11264;DHT22;5689;48.798;9.070;2023-05-10T07:52:20;15.70;99.90
11264;DHT22;5689;48.798;9.070;2023-05-10T07:54:48;15.70;99.90
11264;DHT22;5689;48.798;9.070;2023-05-10T07:57:19;15.90;99.90
11264;DHT22;5689;48.798;9.070;2023-05-10T07:59:47;15.80;99.90
11264;DHT22;5689;48.798;9.070;2023-05-10T08:02:15;15.90;99.90
11264;DHT22;5689;48.798;9.070;2023-05-10T08:04:43;16.10;99.90
11264;DHT22;5689;48.798;9.070;2023-05-10T08:07:11;16.00;99.90
11264;DHT22;5689;48.798;9.070;2023-05-10T08:09:39;16.20;99.90
11264;DHT22;5689;48.798;9.070;2023-05-10T08:12:07;16.10;99.90
11264;DHT22;5689;48.798;9.070;2023-05-10T08:14:36;16.10;99.90
11264;DHT22;5689;48.798;9.070;2023-05-10T08:17:04;16.10;99.90
11264;DHT22;5689;48.798;9.070;2023-05-10T08:19:32;15.90;99.90
11264;DHT22;5689;48.798;9.070;2023-05-10T08:22:00;16.10;99.90
11264;DHT22;5689;48.798;9.070;2023-05-10T08:24:28;16.00;99.90
11264;DHT22;5689;48.798;9.070;2023-05-10T08:26:56;15.50;99.90
11264;DHT22;5689;48.798;9.070;2023-05-10T08:29:24;15.80;99.90
11264;DHT22;5689;48.798;9.070;2023-05-10T08:31:53;15.90;99.90
11264;DHT22;5689;48.798;9.070;2023-05-10T08:34:21;15.70;99.90
11264;DHT22;5689;48.798;9.070;2023-05-10T08:36:50;16.20;99.90
11264;DHT22;5689;48.798;9.070;2023-05-10T08:39:18;16.30;99.90
11264;DHT22;5689;48.798;9.070;2023-05-10T08:41:54;16.50;99.90
11264;DHT22;5689;48.798;9.070;2023-05-10T08:44:25;16.80;99.90
11264;DHT22;5689;48.798;9.070;2023-05-10T08:46:55;16.90;99.90
11264;DHT22;5689;48.798;9.070;2023-05-10T08:49:25;16.90;99.90
11264;DHT22;5689;48.798;9.070;2023-05-10T08:51:55;16.90;99.90
11264;DHT22;5689;48.798;9.070;2023-05-10T08:54:24;16.80;99.90
11264;DHT22;5689;48.798;9.070;2023-05-10T08:56:52;17.00;99.90
11264;DHT22;5689;48.798;9.070;2023-05-10T08:59:20;17.50;99.90
11264;DHT22;5689;48.798;9.070;2023-05-10T09:01:49;18.00;99.90
11264;DHT22;5689;48.798;9.070;2023-05-10T09:04:19;17.40;99.90
11264;DHT22;5689;48.798;9.070;2023-05-10T09:06:48;16.90;99.90
11264;DHT22;5689;48.798;9.070;2023-05-10T09:09:16;17.00;99.90
11264;DHT22;5689;48.798;9.070;2023-05-10T09:11:45;17.00;99.90
11264;DHT22;5689;48.798;9.070;2023-05-10T09:14:14;16.30;99.90
11264;DHT22;5689;48.798;9.070;2023-05-10T09:16:42;16.50;99.90
11264;DHT22;5689;48.798;9.070;2023-05-10T09:19:10;16.80;99.90
11264;DHT22;5689;48.798;9.070;2023-05-10T09:21:39;16.40;99.90
11264;DHT22;5689;48.798;9.070;2023-05-10T09:24:08;16.30;99.90
11264;DHT22;5689;48.798;9.070;2023-05-10T09:26:46;16.50;99.90
11264;DHT22;5689;48.798;9.070;2023-05-10T09:29:15;17.20;99.90
11264;DHT22;5689;48.798;9.070;2023-05-10T09:31:45;17.40;99.90
11264;DHT22;5689;48.798;9.070;2023-05-10T09:34:18;17.30;99.90
11264;DHT22;5689;48.798;9.070;2023-05-10T09:36:55;17.20;99.90
11264;DHT22;5689;48.798;9.070;2023-05-10T09:39:31;17.30;99.90
11264;DHT22;5689;48.798;9.070;2023-05-10T09:42:01;16.90;99.90
11264;DHT22;5689;48.798;9.070;2023-05-10T09:44:31;17.10;99.90
11264;DHT22;5689;48.798;9.070;2023-05-10T09:46:59;16.70;99.90
11264;DHT22;5689;48.798;9.070;2023-05-10T09:49:28;17.10;99.90
11264;DHT22;5689;48.798;9.070;2023-05-10T09:52:04;16.80;99.90
11264;DHT22;5689;48.798;9.070;2023-05-10T09:54:33;16.50;99.90
11264;DHT22;5689;48.798;9.070;2023-05-10T09:57:01;16.10;99.90
11264;DHT22;5689;48.798;9.070;2023-05-10T09:59:29;16.00;99.90
11264;DHT22;5689;48.798;9.070;2023-05-10T10:01:59;16.20;99.90
11264;DHT22;5689;48.798;9.070;2023-05-10T10:04:27;16.60;99.90
11264;DHT22;5689;48.798;9.070;2023-05-10T10:06:59;17.00;99.90
11264;DHT22;5689;48.798;9.070;2023-05-10T10:09:29;17.20;99.90
11264;DHT22;5689;48.798;9.070;2023-05-10T10:11:58;17.80;99.90
11264;DHT22;5689;48.798;9.070;2023-05-10T10:14:26;17.30;99.90
11264;DHT22;5689;48.798;9.070;2023-05-10T10:16:55;17.60;99.90
11264;DHT22;5689;48.798;9.070;2023-05-10T10:19:33;18.00;99.90
11264;DHT22;5689;48.798;9.070;2023-05-10T10:22:01;18.00;99.90
11264;DHT22;5689;48.798;9.070;2023-05-10T10:24:31;18.40;99.90
11264;DHT22;5689;48.798;9.070;2023-05-10T10:27:07;18.80;99.90
11264;DHT22;5689;48.798;9.070;2023-05-10T10:29:39;18.60;99.90
11264;DHT22;5689;48.798;9.070;2023-05-10T10:32:19;18.50;99.90
11264;DHT22;5689;48.798;9.070;2023-05-10T10:34:48;17.90;99.90
11264;DHT22;5689;48.798;9.070;2023-05-10T10:37:16;17.60;99.90
11264;DHT22;5689;48.798;9.070;2023-05-10T10:39:48;17.00;99.90
11264;DHT22;5689;48.798;9.070;2023-05-10T10:42:46;17.50;99.90
11264;DHT22;5689;48.798;9.070;2023-05-10T10:45:16;17.40;99.90
11264;DHT22;5689;48.798;9.070;2023-05-10T10:47:44;16.70;99.90
11264;DHT22;5689;48.798;9.070;2023-05-10T10:50:12;16.40;99.90
11264;DHT22;5689;48.798;9.070;2023-05-10T10:52:43;16.00;99.90
11264;DHT22;5689;48.798;9.070;2023-05-10T10:55:13;16.10;99.90
11264;DHT22;5689;48.798;9.070;2023-05-10T10:57:45;16.00;99.90
11264;DHT22;5689;48.798;9.070;2023-05-10T11:00:30;15.60;99.90
11264;DHT22;5689;48.798;9.070;2023-05-10T11:03:00;15.90;99.90
11264;DHT22;5689;48.798;9.070;2023-05-10T11:05:40;15.90;99.90
11264;DHT22;5689;48.798;9.070;2023-05-10T11:08:12;16.00;99.90
11264;DHT22;5689;48.798;9.070;2023-05-10T11:10:50;16.00;99.90
11264;DHT22;5689;48.798;9.070;2023-05-10T11:13:28;16.80;99.90
11264;DHT22;5689;48.798;9.070;2023-05-10T11:15:57;17.20;99.90
11264;DHT22;5689;48.798;9.070;2023-05-10T11:18:26;17.30;99.90
11264;DHT22;5689;48.798;9.070;2023-05-10T11:20:57;17.60;99.90
11264;DHT22;5689;48.798;9.070;2023-05-10T11:23:30;19.00;99.90
11264;DHT22;5689;48.798;9.070;2023-05-10T11:26:00;19.40;99.90
11264;DHT22;5689;48.798;9.070;2023-05-10T11:28:28;19.00;99.90
11264;DHT22;5689;48.798;9.070;2023-05-10T11:30:57;17.70;99.90
11264;DHT22;5689;48.798;9.070;2023-05-10T11:33:25;17.50;99.90
11264;DHT22;5689;48.798;9.070;2023-05-10T11:35:53;17.00;99.90
11264;DHT22;5689;48.798;9.070;2023-05-10T11:38:21;16.90;99.90
11264;DHT22;5689;48.798;9.070;2023-05-10T11:40:51;16.50;99.90
11264;DHT22;5689;48.798;9.070;2023-05-10T11:43:26;16.30;99.90
11264;DHT22;5689;48.798;9.070;2023-05-10T11:45:57;16.40;99.90
11264;DHT22;5689;48.798;9.070;2023-05-10T11:48:25;16.20;99.90
11264;DHT22;5689;48.798;9.070;2023-05-10T11:50:53;16.00;99.90
11264;DHT22;5689;48.798;9.070;2023-05-10T11:53:25;15.80;99.90
11264;DHT22;5689;48.798;9.070;2023-05-10T11:55:53;15.60;99.90
11264;DHT22;5689;48.798;9.070;2023-05-10T11:58:21;16.30;99.90
11264;DHT22;5689;48.798;9.070;2023-05-10T12:00:52;16.40;99.90
11264;DHT22;5689;48.798;9.070;2023-05-10T12:03:20;16.20;99.90
11264;DHT22;5689;48.798;9.070;2023-05-10T12:05:48;16.10;99.90
11264;DHT22;5689;48.798;9.070;2023-05-10T12:08:20;16.50;99.90
11264;DHT22;5689;48.798;9.070;2023-05-10T12:10:48;16.70;99.90
11264;DHT22;5689;48.798;9.070;2023-05-10T12:13:17;17.60;99.90
11264;DHT22;5689;48.798;9.070;2023-05-10T12:15:45;17.70;99.90
11264;DHT22;5689;48.798;9.070;2023-05-10T12:18:23;17.80;99.90
11264;DHT22;5689;48.798;9.070;2023-05-10T12:20:52;17.70;99.90
11264;DHT22;5689;48.798;9.070;2023-05-10T12:23:21;17.30;99.90
11264;DHT22;5689;48.798;9.070;2023-05-10T12:25:49;17.00;99.90
11264;DHT22;5689;48.798;9.070;2023-05-10T12:28:19;17.00;99.90
11264;DHT22;5689;48.798;9.070;2023-05-10T12:30:47;16.90;99.90
11264;DHT22;5689;48.798;9.070;2023-05-10T12:33:17;16.90;99.90
11264;DHT22;5689;48.798;9.070;2023-05-10T12:35:47;17.40;99.90
11264;DHT22;5689;48.798;9.070;2023-05-10T12:38:26;17.70;99.90
11264;DHT22;5689;48.798;9.070;2023-05-10T12:40:56;18.00;99.90
11264;DHT22;5689;48.798;9.070;2023-05-10T12:43:24;17.70;99.90
11264;DHT22;5689;48.798;9.070;2023-05-10T12:45:52;18.40;99.90
11264;DHT22;5689;48.798;9.070;2023-05-10T12:48:22;18.10;99.90
11264;DHT22;5689;48.798;9.070;2023-05-10T12:50:50;18.20;99.90
11264;DHT22;5689;48.798;9.070;2023-05-10T12:53:18;17.70;99.90
11264;DHT22;5689;48.798;9.070;2023-05-10T12:55:46;17.50;99.90
11264;DHT22;5689;48.798;9.070;2023-05-10T12:58:14;17.40;99.90
11264;DHT22;5689;48.798;9.070;2023-05-10T13:00:46;17.50;99.90
11264;DHT22;5689;48.798;9.070;2023-05-10T13:03:14;17.80;99.90
11264;DHT22;5689;48.798;9.070;2023-05-10T13:05:44;17.70;99.90
11264;DHT22;5689;48.798;9.070;2023-05-10T13:08:12;17.80;99.90
11264;DHT22;5689;48.798;9.070;2023-05-10T13:10:40;18.00;99.90
11264;DHT22;5689;48.798;9.070;2023-05-10T13:13:08;17.40;99.90
11264;DHT22;5689;48.798;9.070;2023-05-10T13:15:36;17.50;99.90
11264;DHT22;5689;48.798;9.070;2023-05-10T13:18:04;17.30;99.90
11264;DHT22;5689;48.798;9.070;2023-05-10T13:20:32;17.60;99.90
11264;DHT22;5689;48.798;9.070;2023-05-10T13:23:02;17.90;99.90
11264;DHT22;5689;48.798;9.070;2023-05-10T13:25:30;17.80;99.90
11264;DHT22;5689;48.798;9.070;2023-05-10T13:27:58;17.40;99.90
11264;DHT22;5689;48.798;9.070;2023-05-10T13:30:25;17.50;99.90
11264;DHT22;5689;48.798;9.070;2023-05-10T13:32:53;17.80;99.90
11264;DHT22;5689;48.798;9.070;2023-05-10T13:35:22;17.20;99.90
11264;DHT22;5689;48.798;9.070;2023-05-10T13:37:50;16.90;99.90
11264;DHT22;5689;48.798;9.070;2023-05-10T13:40:21;17.20;99.90
11264;DHT22;5689;48.798;9.070;2023-05-10T13:42:49;16.90;99.90
11264;DHT22;5689;48.798;9.070;2023-05-10T13:45:17;17.20;99.90
11264;DHT22;5689;48.798;9.070;2023-05-10T13:47:45;17.30;99.90
11264;DHT22;5689;48.798;9.070;2023-05-10T13:50:13;17.20;99.40
11264;DHT22;5689;48.798;9.070;2023-05-10T13:52:41;17.50;99.90
11264;DHT22;5689;48.798;9.070;2023-05-10T13:55:09;17.50;99.40
11264;DHT22;5689;48.798;9.070;2023-05-10T13:57:40;17.70;98.60
11264;DHT22;5689;48.798;9.070;2023-05-10T14:00:10;18.00;98.90
11264;DHT22;5689;48.798;9.070;2023-05-10T14:02:38;17.40;99.90
11264;DHT22;5689;48.798;9.070;2023-05-10T14:05:07;18.00;98.70
11264;DHT22;5689;48.798;9.070;2023-05-10T14:07:35;17.90;99.20
11264;DHT22;5689;48.798;9.070;2023-05-10T14:10:04;17.40;99.20
11264;DHT22;5689;48.798;9.070;2023-05-10T14:12:32;17.70;98.90
11264;DHT22;5689;48.798;9.070;2023-05-10T14:15:01;17.40;99.90
11264;DHT22;5689;48.798;9.070;2023-05-10T14:17:29;17.40;99.90
11264;DHT22;5689;48.798;9.070;2023-05-10T14:19:57;17.30;99.90
11264;DHT22;5689;48.798;9.070;2023-05-10T14:22:26;17.60;99.90
11264;DHT22;5689;48.798;9.070;2023-05-10T14:24:54;17.40;99.90
11264;DHT22;5689;48.798;9.070;2023-05-10T14:27:22;17.60;99.90
11264;DHT22;5689;48.798;9.070;2023-05-10T14:29:50;18.10;99.90
11264;DHT22;5689;48.798;9.070;2023-05-10T14:32:19;18.00;99.90
11264;DHT22;5689;48.798;9.070;2023-05-10T14:34:47;17.60;99.90
11264;DHT22;5689;48.798;9.070;2023-05-10T14:37:15;17.80;99.90
11264;DHT22;5689;48.798;9.070;2023-05-10T14:39:43;18.00;99.90
11264;DHT22;5689;48.798;9.070;2023-05-10T14:42:11;17.80;99.90
11264;DHT22;5689;48.798;9.070;2023-05-10T14:44:39;17.60;99.90
11264;DHT22;5689;48.798;9.070;2023-05-10T14:47:07;17.70;99.90
11264;DHT22;5689;48.798;9.070;2023-05-10T14:49:38;17.30;99.90
11264;DHT22;5689;48.798;9.070;2023-05-10T14:52:06;17.30;99.90
11264;DHT22;5689;48.798;9.070;2023-05-10T14:54:34;17.40;99.90
11264;DHT22;5689;48.798;9.070;2023-05-10T14:57:02;17.50;99.90
11264;DHT22;5689;48.798;9.070;2023-05-10T14:59:30;17.20;99.90
11264;DHT22;5689;48.798;9.070;2023-05-10T15:01:58;17.60;99.90
11264;DHT22;5689;48.798;9.070;2023-05-10T15:04:26;18.10;99.90
11264;DHT22;5689;48.798;9.070;2023-05-10T15:06:55;18.20;99.90
11264;DHT22;5689;48.798;9.070;2023-05-10T15:09:25;18.80;98.90
11264;DHT22;5689;48.798;9.070;2023-05-10T15:11:54;18.70;98.50
11264;DHT22;5689;48.798;9.070;2023-05-10T15:14:22;18.80;98.70
11264;DHT22;5689;48.798;9.070;2023-05-10T15:16:50;18.40;99.40
11264;DHT22;5689;48.798;9.070;2023-05-10T15:19:19;18.50;98.90
11264;DHT22;5689;48.798;9.070;2023-05-10T15:21:47;18.00;99.70
11264;DHT22;5689;48.798;9.070;2023-05-10T15:24:16;18.00;99.80
11264;DHT22;5689;48.798;9.070;2023-05-10T15:26:44;17.60;99.90
11264;DHT22;5689;48.798;9.070;2023-05-10T15:29:12;18.10;99.30
11264;DHT22;5689;48.798;9.070;2023-05-10T15:31:46;17.80;99.90
11264;DHT22;5689;48.798;9.070;2023-05-10T15:34:15;18.10;98.40
11264;DHT22;5689;48.798;9.070;2023-05-10T15:36:43;18.30;97.50
11264;DHT22;5689;48.798;9.070;2023-05-10T15:39:11;18.50;97.10
11264;DHT22;5689;48.798;9.070;2023-05-10T15:41:40;18.30;98.10
11264;DHT22;5689;48.798;9.070;2023-05-10T15:44:08;18.10;98.30
11264;DHT22;5689;48.798;9.070;2023-05-10T15:46:37;17.50;99.00
11264;DHT22;5689;48.798;9.070;2023-05-10T15:49:05;17.30;99.90
11264;DHT22;5689;48.798;9.070;2023-05-10T15:51:33;17.20;98.60
11264;DHT22;5689;48.798;9.070;2023-05-10T15:54:02;17.60;97.90
11264;DHT22;5689;48.798;9.070;2023-05-10T15:56:33;17.30;98.80
11264;DHT22;5689;48.798;9.070;2023-05-10T15:59:03;17.40;99.00
11264;DHT22;5689;48.798;9.070;2023-05-10T16:01:31;17.70;98.70
11264;DHT22;5689;48.798;9.070;2023-05-10T16:04:00;18.00;97.60
11264;DHT22;5689;48.798;9.070;2023-05-10T16:06:28;17.60;98.80
11264;DHT22;5689;48.798;9.070;2023-05-10T16:08:56;17.60;99.30